sensor_id;sensor_type;location;lat;lon;timestamp;pressure;altitude;pressure_sealevel;temperature;humidity
71778;BME280;59609;52.430;4.668;2022-07-29T00:00:09;102013.22;;;15.76;73.50
71778;BME280;59609;52.430;4.668;2022-07-29T00:02:35;102017.03;;;15.75;73.76
71778;BME280;59609;52.430;4.668;2022-07-29T00:05:01;102005.59;;;15.70;73.91
71778;BME280;59609;52.430;4.668;2022-07-29T00:07:27;102008.00;;;15.73;73.84
71778;BME280;59609;52.430;4.668;2022-07-29T00:09:52;102010.78;;;15.73;74.35
71778;BME280;59609;52.430;4.668;2022-07-29T00:12:20;102006.63;;;15.69;74.28
71778;BME280;59609;52.430;4.668;2022-07-29T00:14:45;101989.06;;;15.69;74.47
71778;BME280;59609;52.430;4.668;2022-07-29T00:17:10;101994.63;;;15.69;74.51
71778;BME280;59609;52.430;4.668;2022-07-29T00:19:36;101990.28;;;15.66;74.58
71778;BME280;59609;52.430;4.668;2022-07-29T00:22:01;101995.84;;;15.66;74.36
71778;BME280;59609;52.430;4.668;2022-07-29T00:24:26;101991.84;;;15.69;74.66
71778;BME280;59609;52.430;4.668;2022-07-29T00:26:52;101994.28;;;15.72;74.43
71778;BME280;59609;52.430;4.668;2022-07-29T00:29:17;101987.84;;;15.71;74.26
71778;BME280;59609;52.430;4.668;2022-07-29T00:31:43;101989.09;;;15.77;74.02
71778;BME280;59609;52.430;4.668;2022-07-29T00:34:08;101990.66;;;15.79;74.37
71778;BME280;59609;52.430;4.668;2022-07-29T00:36:54;101979.69;;;15.78;73.83
71778;BME280;59609;52.430;4.668;2022-07-29T00:39:19;101984.41;;;15.77;74.09
71778;BME280;59609;52.430;4.668;2022-07-29T00:41:44;101988.03;;;15.78;74.13
71778;BME280;59609;52.430;4.668;2022-07-29T00:44:09;101977.13;;;15.84;73.70
71778;BME280;59609;52.430;4.668;2022-07-29T00:46:35;101979.38;;;15.81;74.07
71778;BME280;59609;52.430;4.668;2022-07-29T00:49:00;101970.16;;;15.80;74.22
71778;BME280;59609;52.430;4.668;2022-07-29T00:51:26;101970.16;;;15.80;74.03
71778;BME280;59609;52.430;4.668;2022-07-29T00:53:52;101958.53;;;15.77;73.50
71778;BME280;59609;52.430;4.668;2022-07-29T00:56:18;101966.66;;;15.78;73.91
71778;BME280;59609;52.430;4.668;2022-07-29T00:58:45;101962.34;;;15.76;74.48
71778;BME280;59609;52.430;4.668;2022-07-29T01:01:11;101965.31;;;15.74;74.34
71778;BME280;59609;52.430;4.668;2022-07-29T01:03:37;101964.25;;;15.75;73.69
71778;BME280;59609;52.430;4.668;2022-07-29T01:06:02;101961.13;;;15.70;74.69
71778;BME280;59609;52.430;4.668;2022-07-29T01:08:27;101963.72;;;15.72;74.91
71778;BME280;59609;52.430;4.668;2022-07-29T01:10:53;101967.56;;;15.71;74.13
71778;BME280;59609;52.430;4.668;2022-07-29T01:13:20;101964.59;;;15.64;74.80
71778;BME280;59609;52.430;4.668;2022-07-29T01:15:49;101961.09;;;15.62;74.49
71778;BME280;59609;52.430;4.668;2022-07-29T01:26:33;101966.13;;;15.59;75.45
71778;BME280;59609;52.430;4.668;2022-07-29T01:29:36;101960.06;;;15.55;74.91
71778;BME280;59609;52.430;4.668;2022-07-29T01:32:20;101951.53;;;15.49;75.75
71778;BME280;59609;52.430;4.668;2022-07-29T01:34:54;101955.34;;;15.48;75.56
71778;BME280;59609;52.430;4.668;2022-07-29T01:37:28;101952.72;;;15.46;75.57
71778;BME280;59609;52.430;4.668;2022-07-29T01:39:56;101949.28;;;15.44;75.95
71778;BME280;59609;52.430;4.668;2022-07-29T01:45:01;101945.09;;;15.40;75.81
71778;BME280;59609;52.430;4.668;2022-07-29T01:48:02;101944.91;;;15.41;76.25
71778;BME280;59609;52.430;4.668;2022-07-29T01:50:33;101944.38;;;15.38;75.86
71778;BME280;59609;52.430;4.668;2022-07-29T01:53:02;101941.97;;;15.43;75.90
71778;BME280;59609;52.430;4.668;2022-07-29T01:55:32;101943.88;;;15.42;76.27
71778;BME280;59609;52.430;4.668;2022-07-29T01:58:00;101942.13;;;15.41;76.35
71778;BME280;59609;52.430;4.668;2022-07-29T02:00:29;101936.72;;;15.32;77.06
71778;BME280;59609;52.430;4.668;2022-07-29T02:02:58;101938.81;;;15.30;77.64
71778;BME280;59609;52.430;4.668;2022-07-29T02:05:25;101933.28;;;15.30;77.65
71778;BME280;59609;52.430;4.668;2022-07-29T02:07:52;101932.38;;;15.21;77.43
71778;BME280;59609;52.430;4.668;2022-07-29T02:10:22;101929.25;;;15.16;77.53
71778;BME280;59609;52.430;4.668;2022-07-29T02:12:49;101927.50;;;15.07;78.71
71778;BME280;59609;52.430;4.668;2022-07-29T02:15:16;101926.97;;;15.04;78.99
71778;BME280;59609;52.430;4.668;2022-07-29T02:18:10;101927.31;;;15.01;78.68
71778;BME280;59609;52.430;4.668;2022-07-29T02:20:38;101927.97;;;14.94;79.42
71778;BME280;59609;52.430;4.668;2022-07-29T02:23:06;101914.22;;;14.85;80.45
71778;BME280;59609;52.430;4.668;2022-07-29T02:25:32;101915.44;;;14.82;80.30
71778;BME280;59609;52.430;4.668;2022-07-29T02:27:59;101921.34;;;14.79;80.51
71778;BME280;59609;52.430;4.668;2022-07-29T02:30:27;101919.78;;;14.77;80.47
71778;BME280;59609;52.430;4.668;2022-07-29T02:32:54;101918.91;;;14.76;80.23
71778;BME280;59609;52.430;4.668;2022-07-29T02:35:21;101913.88;;;14.80;80.36
71778;BME280;59609;52.430;4.668;2022-07-29T02:37:48;101924.25;;;14.78;80.59
71778;BME280;59609;52.430;4.668;2022-07-29T02:40:34;101917.50;;;14.72;81.13
71778;BME280;59609;52.430;4.668;2022-07-29T02:43:02;101907.06;;;14.66;80.64
71778;BME280;59609;52.430;4.668;2022-07-29T02:45:31;101925.47;;;14.67;80.88
71778;BME280;59609;52.430;4.668;2022-07-29T02:47:57;101918.16;;;14.66;81.07
71778;BME280;59609;52.430;4.668;2022-07-29T02:50:37;101925.81;;;14.64;80.60
71778;BME280;59609;52.430;4.668;2022-07-29T02:53:12;101919.53;;;14.62;81.07
71778;BME280;59609;52.430;4.668;2022-07-29T02:55:43;101917.09;;;14.59;80.64
71778;BME280;59609;52.430;4.668;2022-07-29T02:58:15;101916.91;;;14.53;81.26
71778;BME280;59609;52.430;4.668;2022-07-29T03:00:41;101921.91;;;14.49;80.60
71778;BME280;59609;52.430;4.668;2022-07-29T03:03:13;101917.91;;;14.43;81.88
71778;BME280;59609;52.430;4.668;2022-07-29T03:05:40;101914.75;;;14.38;81.86
71778;BME280;59609;52.430;4.668;2022-07-29T03:08:07;101910.94;;;14.39;81.99
71778;BME280;59609;52.430;4.668;2022-07-29T03:10:34;101912.47;;;14.34;81.89
71778;BME280;59609;52.430;4.668;2022-07-29T03:13:03;101919.16;;;14.31;82.29
71778;BME280;59609;52.430;4.668;2022-07-29T03:15:29;101916.25;;;14.33;82.20
71778;BME280;59609;52.430;4.668;2022-07-29T03:17:55;101904.47;;;14.31;82.26
71778;BME280;59609;52.430;4.668;2022-07-29T03:20:21;101903.59;;;14.30;81.94
71778;BME280;59609;52.430;4.668;2022-07-29T03:22:47;101906.50;;;14.29;82.41
71778;BME280;59609;52.430;4.668;2022-07-29T03:25:16;101915.72;;;14.29;82.33
71778;BME280;59609;52.430;4.668;2022-07-29T03:27:42;101918.81;;;14.26;82.25
71778;BME280;59609;52.430;4.668;2022-07-29T03:30:08;101916.19;;;14.25;82.15
71778;BME280;59609;52.430;4.668;2022-07-29T03:32:35;101916.53;;;14.22;82.54
71778;BME280;59609;52.430;4.668;2022-07-29T03:35:00;101916.69;;;14.20;82.52
71778;BME280;59609;52.430;4.668;2022-07-29T03:37:26;101910.94;;;14.14;82.97
71778;BME280;59609;52.430;4.668;2022-07-29T03:39:54;101926.19;;;14.18;82.58
71778;BME280;59609;52.430;4.668;2022-07-29T03:42:24;101911.63;;;14.16;82.77
71778;BME280;59609;52.430;4.668;2022-07-29T03:44:51;101910.75;;;14.15;83.17
71778;BME280;59609;52.430;4.668;2022-07-29T03:47:22;101907.31;;;14.13;82.72
71778;BME280;59609;52.430;4.668;2022-07-29T03:49:50;101903.81;;;14.11;83.05
71778;BME280;59609;52.430;4.668;2022-07-29T03:52:16;101893.78;;;14.10;83.20
71778;BME280;59609;52.430;4.668;2022-07-29T03:54:42;101892.19;;;14.08;82.33
71778;BME280;59609;52.430;4.668;2022-07-29T03:57:10;101896.88;;;14.07;83.12
71778;BME280;59609;52.430;4.668;2022-07-29T03:59:36;101894.94;;;14.08;82.96
71778;BME280;59609;52.430;4.668;2022-07-29T04:02:04;101897.22;;;14.04;83.64
71778;BME280;59609;52.430;4.668;2022-07-29T04:04:33;101901.88;;;14.04;83.38
71778;BME280;59609;52.430;4.668;2022-07-29T04:06:58;101901.88;;;14.04;83.29
71778;BME280;59609;52.430;4.668;2022-07-29T04:09:24;101893.88;;;14.01;83.91
71778;BME280;59609;52.430;4.668;2022-07-29T04:11:49;101896.66;;;14.01;83.99
71778;BME280;59609;52.430;4.668;2022-07-29T04:14:15;101898.38;;;14.02;83.67
71778;BME280;59609;52.430;4.668;2022-07-29T04:16:40;101892.16;;;14.00;83.57
71778;BME280;59609;52.430;4.668;2022-07-29T04:19:05;101904.31;;;14.07;83.55
71778;BME280;59609;52.430;4.668;2022-07-29T04:21:31;101898.78;;;14.07;83.62
71778;BME280;59609;52.430;4.668;2022-07-29T04:24:01;101903.66;;;14.13;82.99
71778;BME280;59609;52.430;4.668;2022-07-29T04:26:26;101893.94;;;14.09;83.72
71778;BME280;59609;52.430;4.668;2022-07-29T04:28:52;101891.47;;;14.06;83.65
71778;BME280;59609;52.430;4.668;2022-07-29T04:31:17;101895.34;;;14.13;83.14
71778;BME280;59609;52.430;4.668;2022-07-29T04:33:42;101904.00;;;14.18;83.29
71778;BME280;59609;52.430;4.668;2022-07-29T04:36:08;101897.25;;;14.12;83.52
71778;BME280;59609;52.430;4.668;2022-07-29T04:38:33;101900.63;;;14.24;82.74
71778;BME280;59609;52.430;4.668;2022-07-29T04:40:58;101893.84;;;14.26;82.61
71778;BME280;59609;52.430;4.668;2022-07-29T04:43:24;101904.28;;;14.32;82.61
71778;BME280;59609;52.430;4.668;2022-07-29T04:45:49;101903.84;;;14.37;82.27
71778;BME280;59609;52.430;4.668;2022-07-29T04:48:15;101896.88;;;14.41;82.21
71778;BME280;59609;52.430;4.668;2022-07-29T04:50:40;101905.94;;;14.43;81.97
71778;BME280;59609;52.430;4.668;2022-07-29T04:53:06;101898.31;;;14.45;82.54
71778;BME280;59609;52.430;4.668;2022-07-29T04:55:32;101903.50;;;14.48;82.21
71778;BME280;59609;52.430;4.668;2022-07-29T04:57:58;101894.72;;;14.53;81.99
71778;BME280;59609;52.430;4.668;2022-07-29T05:00:23;101900.09;;;14.54;82.21
71778;BME280;59609;52.430;4.668;2022-07-29T05:02:49;101901.88;;;14.63;81.35
71778;BME280;59609;52.430;4.668;2022-07-29T05:05:14;101901.88;;;14.63;81.84
71778;BME280;59609;52.430;4.668;2022-07-29T05:07:40;101892.50;;;14.64;82.18
71778;BME280;59609;52.430;4.668;2022-07-29T05:10:06;101899.81;;;14.73;81.54
71778;BME280;59609;52.430;4.668;2022-07-29T05:12:32;101895.50;;;14.79;81.09
71778;BME280;59609;52.430;4.668;2022-07-29T05:14:58;101896.72;;;14.76;81.64
71778;BME280;59609;52.430;4.668;2022-07-29T05:17:23;101898.28;;;14.79;81.41
71778;BME280;59609;52.430;4.668;2022-07-29T05:19:48;101894.63;;;14.78;81.38
71778;BME280;59609;52.430;4.668;2022-07-29T05:22:16;101894.66;;;14.94;80.89
71778;BME280;59609;52.430;4.668;2022-07-29T05:24:42;101896.25;;;15.05;80.43
71778;BME280;59609;52.430;4.668;2022-07-29T05:27:07;101886.38;;;15.19;80.25
71778;BME280;59609;52.430;4.668;2022-07-29T05:29:32;101897.34;;;15.36;79.95
71778;BME280;59609;52.430;4.668;2022-07-29T05:31:58;101893.72;;;15.44;79.53
71778;BME280;59609;52.430;4.668;2022-07-29T05:34:23;101888.19;;;15.60;78.29
71778;BME280;59609;52.430;4.668;2022-07-29T05:36:50;101897.91;;;15.56;77.78
71778;BME280;59609;52.430;4.668;2022-07-29T05:39:16;101897.38;;;15.53;78.57
71778;BME280;59609;52.430;4.668;2022-07-29T05:41:41;101901.69;;;15.47;78.42
71778;BME280;59609;52.430;4.668;2022-07-29T05:44:06;101903.59;;;15.46;78.55
71778;BME280;59609;52.430;4.668;2022-07-29T05:46:32;101908.28;;;15.46;79.15
71778;BME280;59609;52.430;4.668;2022-07-29T05:48:57;101910.88;;;15.39;79.14
71778;BME280;59609;52.430;4.668;2022-07-29T05:51:22;101910.91;;;15.48;79.57
71778;BME280;59609;52.430;4.668;2022-07-29T05:53:48;101916.47;;;15.56;78.83
71778;BME280;59609;52.430;4.668;2022-07-29T05:56:13;101911.47;;;15.51;79.02
71778;BME280;59609;52.430;4.668;2022-07-29T05:58:39;101898.59;;;15.50;79.13
71778;BME280;59609;52.430;4.668;2022-07-29T06:01:04;101912.50;;;15.50;79.89
71778;BME280;59609;52.430;4.668;2022-07-29T06:03:30;101903.97;;;15.43;79.44
71778;BME280;59609;52.430;4.668;2022-07-29T06:05:55;101900.00;;;15.54;79.21
71778;BME280;59609;52.430;4.668;2022-07-29T06:08:20;101915.59;;;15.71;78.13
71778;BME280;59609;52.430;4.668;2022-07-29T06:10:46;101918.75;;;15.76;78.71
71778;BME280;59609;52.430;4.668;2022-07-29T06:13:12;101908.13;;;15.96;77.85
71778;BME280;59609;52.430;4.668;2022-07-29T06:15:37;101912.09;;;16.18;77.74
71778;BME280;59609;52.430;4.668;2022-07-29T06:18:03;101908.34;;;16.41;77.01
71778;BME280;59609;52.430;4.668;2022-07-29T06:20:29;101921.06;;;16.44;76.46
71778;BME280;59609;52.430;4.668;2022-07-29T06:22:55;101913.59;;;16.36;76.27
71778;BME280;59609;52.430;4.668;2022-07-29T06:25:21;101907.34;;;16.34;76.06
71778;BME280;59609;52.430;4.668;2022-07-29T06:27:46;101914.13;;;16.32;76.99
71778;BME280;59609;52.430;4.668;2022-07-29T06:30:12;101917.41;;;16.43;76.44
71778;BME280;59609;52.430;4.668;2022-07-29T06:32:37;101903.59;;;16.74;75.04
71778;BME280;59609;52.430;4.668;2022-07-29T06:35:03;101903.75;;;17.04;73.96
71778;BME280;59609;52.430;4.668;2022-07-29T06:37:28;101907.72;;;17.32;72.72
71778;BME280;59609;52.430;4.668;2022-07-29T06:39:54;101920.75;;;17.39;72.37
71778;BME280;59609;52.430;4.668;2022-07-29T06:42:42;101916.19;;;17.69;71.45
71778;BME280;59609;52.430;4.668;2022-07-29T06:45:07;101920.19;;;17.89;70.69
71778;BME280;59609;52.430;4.668;2022-07-29T06:47:32;101917.84;;;18.16;69.78
71778;BME280;59609;52.430;4.668;2022-07-29T06:49:58;101916.78;;;18.31;69.46
71778;BME280;59609;52.430;4.668;2022-07-29T06:52:23;101917.84;;;18.45;67.70
71778;BME280;59609;52.430;4.668;2022-07-29T06:54:50;101919.25;;;18.12;67.61
71778;BME280;59609;52.430;4.668;2022-07-29T06:57:15;101921.13;;;18.19;68.31
71778;BME280;59609;52.430;4.668;2022-07-29T06:59:41;101925.84;;;18.48;67.82
71778;BME280;59609;52.430;4.668;2022-07-29T07:02:06;101919.13;;;18.72;67.25
71778;BME280;59609;52.430;4.668;2022-07-29T07:04:31;101923.91;;;18.92;66.02
71778;BME280;59609;52.430;4.668;2022-07-29T07:06:57;101919.34;;;19.21;65.04
71778;BME280;59609;52.430;4.668;2022-07-29T07:09:23;101916.00;;;19.32;64.80
71778;BME280;59609;52.430;4.668;2022-07-29T07:11:48;101923.84;;;19.22;65.09
71778;BME280;59609;52.430;4.668;2022-07-29T07:14:13;101932.31;;;19.28;64.37
71778;BME280;59609;52.430;4.668;2022-07-29T07:16:38;101924.00;;;19.35;64.08
71778;BME280;59609;52.430;4.668;2022-07-29T07:19:04;101926.66;;;19.58;63.57
71778;BME280;59609;52.430;4.668;2022-07-29T07:21:29;101930.13;;;19.60;63.08
71778;BME280;59609;52.430;4.668;2022-07-29T07:23:55;101930.84;;;19.47;63.66
71778;BME280;59609;52.430;4.668;2022-07-29T07:26:20;101937.22;;;19.62;62.57
71778;BME280;59609;52.430;4.668;2022-07-29T07:28:45;101945.31;;;19.36;63.06
71778;BME280;59609;52.430;4.668;2022-07-29T07:31:11;101933.78;;;19.60;62.49
71778;BME280;59609;52.430;4.668;2022-07-29T07:33:37;101933.72;;;19.75;62.25
71778;BME280;59609;52.430;4.668;2022-07-29T07:36:02;101935.91;;;20.28;61.96
71778;BME280;59609;52.430;4.668;2022-07-29T07:38:28;101937.47;;;20.31;60.26
71778;BME280;59609;52.430;4.668;2022-07-29T07:40:53;101937.69;;;20.36;60.35
71778;BME280;59609;52.430;4.668;2022-07-29T07:43:19;101934.81;;;20.50;59.09
71778;BME280;59609;52.430;4.668;2022-07-29T07:45:44;101933.31;;;20.54;59.34
71778;BME280;59609;52.430;4.668;2022-07-29T07:48:09;101934.94;;;20.77;58.69
71778;BME280;59609;52.430;4.668;2022-07-29T07:50:36;101925.78;;;20.62;59.90
71778;BME280;59609;52.430;4.668;2022-07-29T07:53:02;101932.50;;;20.33;59.79
71778;BME280;59609;52.430;4.668;2022-07-29T07:55:28;101932.41;;;19.98;61.02
71778;BME280;59609;52.430;4.668;2022-07-29T07:57:54;101932.03;;;19.59;61.93
71778;BME280;59609;52.430;4.668;2022-07-29T08:00:20;101924.00;;;19.35;62.88
71778;BME280;59609;52.430;4.668;2022-07-29T08:02:46;101937.56;;;19.17;63.73
71778;BME280;59609;52.430;4.668;2022-07-29T08:05:12;101936.97;;;19.21;64.61
71778;BME280;59609;52.430;4.668;2022-07-29T08:07:41;101933.56;;;19.26;63.92
71778;BME280;59609;52.430;4.668;2022-07-29T08:10:07;101934.53;;;19.33;63.40
71778;BME280;59609;52.430;4.668;2022-07-29T08:12:32;101935.66;;;19.38;63.67
71778;BME280;59609;52.430;4.668;2022-07-29T08:14:58;101935.09;;;19.85;62.89
71778;BME280;59609;52.430;4.668;2022-07-29T08:17:23;101933.78;;;20.30;61.50
71778;BME280;59609;52.430;4.668;2022-07-29T08:19:49;101939.75;;;20.89;60.42
71778;BME280;59609;52.430;4.668;2022-07-29T08:22:14;101937.59;;;21.32;59.39
71778;BME280;59609;52.430;4.668;2022-07-29T08:24:40;101937.44;;;21.53;58.32
71778;BME280;59609;52.430;4.668;2022-07-29T08:27:11;101939.47;;;21.92;56.90
71778;BME280;59609;52.430;4.668;2022-07-29T08:29:38;101939.69;;;22.24;56.03
71778;BME280;59609;52.430;4.668;2022-07-29T08:32:04;101936.81;;;22.63;55.25
71778;BME280;59609;52.430;4.668;2022-07-29T08:34:29;101939.69;;;22.17;56.08
71778;BME280;59609;52.430;4.668;2022-07-29T08:36:55;101934.09;;;21.91;56.52
71778;BME280;59609;52.430;4.668;2022-07-29T08:39:22;101942.50;;;22.17;55.90
71778;BME280;59609;52.430;4.668;2022-07-29T08:41:47;101927.38;;;22.31;55.60
71778;BME280;59609;52.430;4.668;2022-07-29T08:44:15;101933.19;;;22.30;56.10
71778;BME280;59609;52.430;4.668;2022-07-29T08:46:41;101931.69;;;22.40;54.58
71778;BME280;59609;52.430;4.668;2022-07-29T08:49:07;101930.34;;;22.56;53.44
71778;BME280;59609;52.430;4.668;2022-07-29T08:51:33;101931.00;;;22.58;54.11
71778;BME280;59609;52.430;4.668;2022-07-29T08:54:00;101931.72;;;22.08;54.99
71778;BME280;59609;52.430;4.668;2022-07-29T08:56:26;101939.91;;;22.02;56.50
71778;BME280;59609;52.430;4.668;2022-07-29T08:58:52;101941.81;;;21.89;54.53
71778;BME280;59609;52.430;4.668;2022-07-29T09:01:23;101943.09;;;21.86;55.52
71778;BME280;59609;52.430;4.668;2022-07-29T09:03:49;101957.19;;;22.13;55.24
71778;BME280;59609;52.430;4.668;2022-07-29T09:06:17;101947.69;;;22.00;54.84
71778;BME280;59609;52.430;4.668;2022-07-29T09:08:44;101944.44;;;22.10;54.51
71778;BME280;59609;52.430;4.668;2022-07-29T09:11:09;101945.75;;;22.21;54.74
71778;BME280;59609;52.430;4.668;2022-07-29T09:13:36;101941.00;;;22.28;53.90
71778;BME280;59609;52.430;4.668;2022-07-29T09:16:02;101941.41;;;22.38;55.41
71778;BME280;59609;52.430;4.668;2022-07-29T09:18:35;101938.63;;;22.31;53.36
71778;BME280;59609;52.430;4.668;2022-07-29T09:21:01;101940.75;;;22.36;52.52
71778;BME280;59609;52.430;4.668;2022-07-29T09:24:05;101939.63;;;22.63;53.30
71778;BME280;59609;52.430;4.668;2022-07-29T09:26:34;101940.72;;;22.75;52.74
71778;BME280;59609;52.430;4.668;2022-07-29T09:29:07;101940.97;;;22.47;52.58
71778;BME280;59609;52.430;4.668;2022-07-29T09:31:35;101933.63;;;22.40;53.16
71778;BME280;59609;52.430;4.668;2022-07-29T09:34:01;101927.56;;;22.36;52.94
71778;BME280;59609;52.430;4.668;2022-07-29T09:36:26;101942.66;;;22.55;53.33
71778;BME280;59609;52.430;4.668;2022-07-29T09:39:01;101943.97;;;22.59;52.49
71778;BME280;59609;52.430;4.668;2022-07-29T09:41:28;101941.88;;;22.28;52.93
71778;BME280;59609;52.430;4.668;2022-07-29T09:43:58;101939.25;;;22.27;53.42
71778;BME280;59609;52.430;4.668;2022-07-29T09:46:25;101945.50;;;22.35;52.71
71778;BME280;59609;52.430;4.668;2022-07-29T09:49:11;101938.94;;;22.94;53.19
71778;BME280;59609;52.430;4.668;2022-07-29T09:51:37;101927.16;;;23.17;50.64
71778;BME280;59609;52.430;4.668;2022-07-29T09:54:25;101914.09;;;22.91;50.93
71778;BME280;59609;52.430;4.668;2022-07-29T09:56:52;101929.41;;;23.01;50.66
71778;BME280;59609;52.430;4.668;2022-07-29T09:59:18;101931.16;;;22.89;50.42
71778;BME280;59609;52.430;4.668;2022-07-29T10:01:45;101922.38;;;23.24;49.63
71778;BME280;59609;52.430;4.668;2022-07-29T10:04:11;101926.63;;;22.82;51.05
71778;BME280;59609;52.430;4.668;2022-07-29T10:06:55;101923.88;;;23.26;49.40
71778;BME280;59609;52.430;4.668;2022-07-29T10:09:20;101921.53;;;23.17;49.46
71778;BME280;59609;52.430;4.668;2022-07-29T10:12:06;101914.47;;;23.01;50.24
71778;BME280;59609;52.430;4.668;2022-07-29T10:14:32;101927.38;;;23.15;49.62
71778;BME280;59609;52.430;4.668;2022-07-29T10:17:00;101925.34;;;23.29;49.78
71778;BME280;59609;52.430;4.668;2022-07-29T10:19:27;101920.88;;;23.21;50.15
71778;BME280;59609;52.430;4.668;2022-07-29T10:21:53;101924.56;;;23.91;49.63
71778;BME280;59609;52.430;4.668;2022-07-29T10:24:19;101922.84;;;23.90;49.14
71778;BME280;59609;52.430;4.668;2022-07-29T10:26:46;101926.31;;;23.85;49.84
71778;BME280;59609;52.430;4.668;2022-07-29T10:29:13;101926.00;;;23.69;48.78
71778;BME280;59609;52.430;4.668;2022-07-29T10:34:57;101933.16;;;23.71;48.76
71778;BME280;59609;52.430;4.668;2022-07-29T10:43:16;101934.16;;;24.15;49.03
71778;BME280;59609;52.430;4.668;2022-07-29T10:45:45;101927.56;;;24.45;47.53
71778;BME280;59609;52.430;4.668;2022-07-29T10:48:11;101937.41;;;24.36;47.19
71778;BME280;59609;52.430;4.668;2022-07-29T10:50:59;101925.66;;;24.39;47.49
71778;BME280;59609;52.430;4.668;2022-07-29T10:53:49;101929.44;;;25.42;46.35
71778;BME280;59609;52.430;4.668;2022-07-29T10:56:25;101920.66;;;26.33;41.87
71778;BME280;59609;52.430;4.668;2022-07-29T11:01:47;101916.72;;;26.81;41.32
71778;BME280;59609;52.430;4.668;2022-07-29T11:04:13;101916.63;;;26.87;41.40
71778;BME280;59609;52.430;4.668;2022-07-29T11:07:09;101915.19;;;25.85;41.42
71778;BME280;59609;52.430;4.668;2022-07-29T11:09:34;101916.75;;;25.93;41.76
71778;BME280;59609;52.430;4.668;2022-07-29T11:12:00;101915.72;;;26.29;42.28
71778;BME280;59609;52.430;4.668;2022-07-29T11:17:20;101917.56;;;27.04;40.61
71778;BME280;59609;52.430;4.668;2022-07-29T11:19:45;101916.88;;;26.28;40.95
71778;BME280;59609;52.430;4.668;2022-07-29T11:22:31;101917.69;;;26.17;42.25
71778;BME280;59609;52.430;4.668;2022-07-29T11:25:17;101909.22;;;26.40;42.50
71778;BME280;59609;52.430;4.668;2022-07-29T11:27:44;101916.25;;;26.60;40.73
71778;BME280;59609;52.430;4.668;2022-07-29T11:30:10;101905.16;;;26.94;39.54
71778;BME280;59609;52.430;4.668;2022-07-29T11:32:39;101907.28;;;27.27;39.72
71778;BME280;59609;52.430;4.668;2022-07-29T11:37:36;101894.13;;;27.21;40.59
71778;BME280;59609;52.430;4.668;2022-07-29T11:45:10;101897.75;;;27.04;40.27
71778;BME280;59609;52.430;4.668;2022-07-29T11:47:48;101905.41;;;26.69;40.47
71778;BME280;59609;52.430;4.668;2022-07-29T11:50:36;101903.06;;;26.66;40.05
71778;BME280;59609;52.430;4.668;2022-07-29T11:53:12;101902.38;;;26.47;41.49
71778;BME280;59609;52.430;4.668;2022-07-29T11:55:39;101907.75;;;26.60;40.57
71778;BME280;59609;52.430;4.668;2022-07-29T11:58:05;101901.25;;;26.72;39.25
71778;BME280;59609;52.430;4.668;2022-07-29T12:00:38;101898.69;;;27.22;38.72
71778;BME280;59609;52.430;4.668;2022-07-29T12:03:06;101892.81;;;27.51;38.45
71778;BME280;59609;52.430;4.668;2022-07-29T12:05:37;101905.94;;;27.57;38.26
71778;BME280;59609;52.430;4.668;2022-07-29T12:08:08;101903.47;;;27.61;37.83
71778;BME280;59609;52.430;4.668;2022-07-29T12:10:34;101896.88;;;27.72;37.00
71778;BME280;59609;52.430;4.668;2022-07-29T12:13:00;101899.72;;;27.89;36.73
71778;BME280;59609;52.430;4.668;2022-07-29T12:15:25;101897.50;;;27.91;36.25
71778;BME280;59609;52.430;4.668;2022-07-29T12:17:51;101893.22;;;28.05;37.10
71778;BME280;59609;52.430;4.668;2022-07-29T12:20:25;101888.78;;;28.09;37.03
71778;BME280;59609;52.430;4.668;2022-07-29T12:22:51;101897.81;;;27.61;36.80
71778;BME280;59609;52.430;4.668;2022-07-29T12:25:19;101893.31;;;28.27;36.41
71778;BME280;59609;52.430;4.668;2022-07-29T12:27:45;101899.53;;;28.07;37.40
71778;BME280;59609;52.430;4.668;2022-07-29T12:30:13;101894.22;;;28.49;36.52
71778;BME280;59609;52.430;4.668;2022-07-29T12:32:41;101892.75;;;28.08;36.66
71778;BME280;59609;52.430;4.668;2022-07-29T12:35:19;101892.91;;;28.18;36.83
71778;BME280;59609;52.430;4.668;2022-07-29T12:37:46;101892.13;;;28.23;35.82
71778;BME280;59609;52.430;4.668;2022-07-29T12:40:14;101890.28;;;28.00;36.69
71778;BME280;59609;52.430;4.668;2022-07-29T12:43:05;101896.84;;;28.34;36.08
71778;BME280;59609;52.430;4.668;2022-07-29T12:45:31;101902.94;;;28.26;36.55
71778;BME280;59609;52.430;4.668;2022-07-29T12:47:57;101892.78;;;28.46;37.35
71778;BME280;59609;52.430;4.668;2022-07-29T12:50:22;101895.63;;;28.30;36.93
71778;BME280;59609;52.430;4.668;2022-07-29T12:52:48;101898.28;;;28.36;37.18
71778;BME280;59609;52.430;4.668;2022-07-29T12:55:13;101902.31;;;28.57;36.91
71778;BME280;59609;52.430;4.668;2022-07-29T12:57:50;101899.84;;;28.99;35.57
71778;BME280;59609;52.430;4.668;2022-07-29T13:00:22;101902.50;;;28.34;36.33
71778;BME280;59609;52.430;4.668;2022-07-29T13:02:55;101896.47;;;28.47;36.55
71778;BME280;59609;52.430;4.668;2022-07-29T13:05:20;101886.41;;;29.16;35.06
71778;BME280;59609;52.430;4.668;2022-07-29T13:07:46;101891.03;;;29.00;34.91
71778;BME280;59609;52.430;4.668;2022-07-29T13:10:16;101889.66;;;29.46;34.02
71778;BME280;59609;52.430;4.668;2022-07-29T13:13:01;101892.00;;;29.28;33.93
71778;BME280;59609;52.430;4.668;2022-07-29T13:15:27;101888.72;;;28.97;34.37
71778;BME280;59609;52.430;4.668;2022-07-29T13:17:52;101895.34;;;28.81;35.22
71778;BME280;59609;52.430;4.668;2022-07-29T13:20:18;101889.66;;;28.81;34.50
71778;BME280;59609;52.430;4.668;2022-07-29T13:22:47;101890.06;;;29.11;34.05
71778;BME280;59609;52.430;4.668;2022-07-29T13:25:13;101887.59;;;28.60;34.12
71778;BME280;59609;52.430;4.668;2022-07-29T13:27:39;101887.97;;;28.47;35.88